Clearfield, PA (16830)

4:54 PM EST on January 27, 2015 (GMT -0500)
Clearfield | Change Station
CLOSE
Current Station
Personal Weather Station
Location: Clearfield, PA
Elevation: 1127 ft
Nearby Weather Stations

Elev 1127 ft 41.02 °N, 78.46 °W | Updated 3 minutes ago

Overcast
Overcast
24.6 °F
Feels Like 25 °F
N
3.0
Wind Variable Wind from WNW
Gusts 4.0 mph

Today
High -- | Low -- °F
--% Chance of Precip.
Yesterday
High -- | Low -- °F
Precip. -- in
7:29 AM 5:24 PM
First Quarter, 58% visible
Pressure 29.94 in
Visibility 10.0 miles
Clouds Few 2600 ft
Few 7000 ft
Overcast 8000 ft
Windchill 25 °F
Dew Point 19 °F
Humidity 78%
Rainfall 0.00 in
Snow Depth Not available.
UV 0.0 out of 12
Pollen .10 out of 12
Air Quality Not available.
Flu Activity Not available.
METAR KFIG 272054Z AUTO 32009KT 10SM FEW026 FEW070 OVC080 M05/M10 A2987 RMK AO2 UPE1955 SLP137 P0000 60000 T10501100 53010

More Conditions Fewer Conditions

Pressure 29.94 in
Visibility 10.0 miles
Clouds Few 2600 ft
Few 7000 ft
Overcast 8000 ft
Windchill 25 °F
Dew Point 19 °F
Humidity 78%
Rainfall 0.00 in
Snow Depth Not available.
UV 0.0 out of 12
Pollen .10 out of 12
Air Quality Not available.
Flu Activity Not available.
METAR KFIG 272054Z AUTO 32009KT 10SM FEW026 FEW070 OVC080 M05/M10 A2987 RMK AO2 UPE1955 SLP137 P0000 60000 T10501100 53010

More Conditions Fewer Conditions

10-Day Weather Forecast

Almanac

Astronomy

Jan. 27, 2015 Rise Set
Actual Time
Civil Twilight
Nautical Twilight
Astronomical Twilight
Moon
Length of Visible Light
Length of Day
Tomorrow will be .
, % of the Moon is Illuminated

Today's Extremes

State Highs State Lows

Community

WunderPhotos

Upload Photos

1,790,920 photos uploaded!

WunderBlogs® & News

Nearby

Air Quality

  Air Quality AQ Index Pollutant
Not available.

Snow Depth

Station Depth Elevation

Earthquake Activity

City Distance Mag. Time & Date
Minimum magnitude displayed is 2.5.

Coastal Water Temperatures

Place Temperature

Nearby Weather Stations